Thunder radar more information blitzortung!


Rain radar more information rain snow radar


Visit our other weather sites:

Template documentation
and downloads

And another site



There are no active watches, warnings or advisories

Nearby METAR Reports

   
EHVK - Volkel Rnlafb, Netherlands
Distance from station: SW 11 mi
Updated: Sep 27 2020 12:55 pm
Overcast  
Overcast  
   Wind: NNE 2.3 mph
Wind: NNE 2.3 mph
Temperature: 55.4°F
Dew Point: 50°F
Humidity: 82%
Barometer: 29.71 inHg
Clouds: Overcast
Visibility: More than 6 mi
Cloud details: Overcast 7100 ft
EHVK 271655Z AUTO 02002KT 9999 OVC071 13/10 Q1006 BLU
EDLV - Niederrhein, Germany
Distance from station: SE 15 mi
Updated: Sep 27 2020 12:50 pm
Clear  
Clear  
   Wind: Calm
Wind: Calm
Temperature: 57.2°F
Dew Point: 48.2°F
Humidity: 72%
Barometer: 29.71 inHg
Visibility: More than 6 mi
Cloud details: Clear
EDLV 271650Z 00000KT CAVOK 14/09 Q1006
EHDL - Deelen Rnlafb, Netherlands
Distance from station: N 22 mi
Updated: Sep 27 2020 12:55 pm
Overcast  
Overcast  
   Wind: ENE 2.3 mph
Wind: ENE 2.3 mph
Temperature: 55.4°F
Dew Point: 51.8°F
Humidity: 88%
Barometer: 29.71 inHg
Clouds: Overcast
Visibility: More than 6 mi
Cloud details: Overcast 5300 ft
EHDL 271655Z AUTO 07002KT 9999 OVC053 13/11 Q1006 BLU
EHEH - Eindhoven Rnlafb, Netherlands
Distance from station: SW 30 mi
Updated: Sep 27 2020 12:56 pm
Overcast  
Overcast  
   Wind: East 4.6 mph
Wind: East 4.6 mph
Temperature: 55.4°F
Dew Point: 50°F
Humidity: 82%
Barometer: 29.71 inHg
Clouds: Overcast
Visibility: More than 6 mi
Cloud details: Overcast 7100 ft
EHEH 271656Z AUTO 09004KT 040V140 9999 OVC071 13/10 Q1006 BLU TEMPO SCT017 BKN070 BECMG VRB03KT
EHGR - Gilze-Rijen Rnla, Netherlands
Distance from station: WSW 43 mi
Updated: Sep 27 2020 12:55 pm
Overcast  
Overcast  
   Wind: East 3.5 mph
Wind: East 3.5 mph
Temperature: 57.2°F
Dew Point: 50°F
Humidity: 77%
Barometer: 29.71 inHg
Clouds: Overcast
Visibility: More than 6 mi
Cloud details: Overcast 6500 ft
EHGR 271655Z AUTO 10003KT 070V130 9999 OVC065 14/10 Q1006 BLU
EBBL - Kleine-Brogel(Ba, Belgium
Distance from station: SSW 44 mi
Updated: Sep 27 2020 12:55 pm
Overcast  
Overcast  
   Wind: varies 2.3 mph
Wind: varies 2.3 mph
Temperature: 55.4°F
Dew Point: 50°F
Humidity: 82%
Barometer: 29.71 inHg
Clouds: Overcast
Visibility: More than 6 mi
Cloud details: Mostly Cloudy 8800 ft,
Overcast 11000 ft
EBBL 271655Z AUTO VRB02KT 9999 BKN088/// OVC110/// 13/10 Q1006 BLU

Script developed by  Saratoga-weather.org Adapted for the template by  Weerstation Leuven

You find our weather info also at:

Weather Underground

AWEKAS

Citizen Weather Observer Program (CWOP)

HAMweather, WeatherForYou, PWS Weather

Equipment we use:

Weather-station
Davis VP2

Weather-program
Weather Display

Weather-server
HP ProDesk 600 G1

Provider
1&1 IONOS

Davis VP2

Weather Display

HP ProDesk 600 G1

1&1 IONOS